Time;durP1;ratioP1;P1;durP2;ratioP2;P2;SDS_P1;SDS_P2;PMS_P1;PMS_P2;Temp;Humidity;BMP_temperature;BMP_pressure;BME280_temperature;BME280_humidity;BME280_pressure;Samples;Min_cycle;Max_cycle;Signal;HPM_P1;HPM_P2
2022/03/29 00:00:59;;;;;;;22.38;12.70;;;;;;;8.39;71.91;101651.16;5023095;28;20033;-79
2022/03/29 00:03:24;;;;;;;23.25;12.25;;;;;;;8.35;71.61;101655.31;5023144;28;20049;-80
2022/03/29 00:05:50;;;;;;;22.67;11.90;;;;;;;8.30;71.49;101650.75;5023695;28;20184;-79
2022/03/29 00:08:15;;;;;;;21.73;11.63;;;;;;;8.24;71.68;101645.25;5022622;28;20041;-80
2022/03/29 00:10:40;;;;;;;20.52;12.07;;;;;;;8.23;72.21;101641.78;5024127;28;20034;-80
2022/03/29 00:13:06;;;;;;;24.10;13.00;;;;;;;8.19;72.55;101635.53;5024077;28;20161;-80
2022/03/29 00:15:32;;;;;;;21.13;12.50;;;;;;;8.17;72.55;101634.59;5024146;28;20079;-80
2022/03/29 00:17:57;;;;;;;25.02;12.23;;;;;;;8.16;72.29;101637.13;5023813;28;20184;-80
2022/03/29 00:20:22;;;;;;;21.52;12.55;;;;;;;8.15;72.84;101632.75;5024058;28;20244;-80
2022/03/29 00:22:48;;;;;;;23.20;13.43;;;;;;;8.11;73.03;101629.13;5023026;28;20026;-80
2022/03/29 00:25:14;;;;;;;25.45;13.65;;;;;;;8.09;73.01;101635.94;5023611;28;20093;-80
2022/03/29 00:27:40;;;;;;;25.25;13.40;;;;;;;8.06;73.41;101628.03;5024451;28;20041;-80
2022/03/29 00:30:07;;;;;;;27.52;13.43;;;;;;;8.03;73.77;101629.59;5023907;28;20328;-80
2022/03/29 00:32:33;;;;;;;24.23;13.85;;;;;;;8.01;74.00;101633.00;5022550;28;20129;-79
2022/03/29 00:34:59;;;;;;;25.67;14.10;;;;;;;8.00;74.13;101623.44;5022656;28;20028;-80
2022/03/29 00:37:25;;;;;;;22.55;14.10;;;;;;;7.97;74.47;101627.59;5024308;28;20085;-80
2022/03/29 00:39:50;;;;;;;28.67;14.95;;;;;;;7.92;74.49;101614.41;5023779;28;20054;-80
2022/03/29 00:42:15;;;;;;;26.30;14.63;;;;;;;7.92;74.79;101613.50;5024065;28;20076;-79
2022/03/29 00:44:40;;;;;;;27.88;14.13;;;;;;;7.86;74.61;101608.91;5023215;28;20018;-80
2022/03/29 00:47:06;;;;;;;24.52;13.82;;;;;;;7.84;74.66;101606.25;5023683;28;20022;-79
2022/03/29 00:49:31;;;;;;;24.80;13.82;;;;;;;7.81;74.35;101595.72;5023752;28;20292;-79
2022/03/29 00:52:01;;;;;;;25.08;13.75;;;;;;;7.84;74.95;101592.41;5023366;28;20031;-79
2022/03/29 00:54:37;;;;;;;23.45;13.70;;;;;;;7.80;74.95;101591.34;5023391;28;20029;-79
2022/03/29 00:57:04;;;;;;;27.17;15.02;;;;;;;7.75;74.67;101587.66;5022170;28;20030;-79
2022/03/29 00:59:30;;;;;;;26.92;14.95;;;;;;;7.72;74.97;101592.72;5029394;28;20053;-79
2022/03/29 01:02:00;;;;;;;25.98;14.98;;;;;;;7.68;74.88;101584.72;5024086;28;20033;-79
2022/03/29 01:04:26;;;;;;;28.10;15.05;;;;;;;7.66;75.28;101579.44;5023165;28;20272;-79
2022/03/29 01:06:53;;;;;;;25.35;14.63;;;;;;;7.63;75.29;101582.81;5023363;28;20061;-76
2022/03/29 01:09:19;;;;;;;27.73;15.63;;;;;;;7.59;75.09;101577.38;5022227;28;20022;-76
2022/03/29 01:11:45;;;;;;;28.65;15.35;;;;;;;7.56;75.04;101577.22;5023319;28;20022;-76
2022/03/29 01:14:10;;;;;;;25.98;15.63;;;;;;;7.51;75.77;101578.72;5022152;28;20034;-76
2022/03/29 01:19:20;;;;;;;24.60;14.57;;;;;;;7.43;75.12;101568.88;5022221;28;20048;-76
2022/03/29 01:21:56;;;;;;;25.02;14.27;;;;;;;7.42;75.22;101571.41;5022187;28;20328;-76
2022/03/29 01:24:22;;;;;;;26.10;15.30;;;;;;;7.42;75.70;101569.69;5021866;28;20029;-76
2022/03/29 01:26:49;;;;;;;25.48;14.82;;;;;;;7.39;76.02;101572.13;5023328;28;20049;-76
2022/03/29 01:29:14;;;;;;;25.90;15.68;;;;;;;7.35;76.42;101570.19;5022827;28;20026;-76
2022/03/29 01:31:40;;;;;;;24.10;14.70;;;;;;;7.32;76.12;101564.88;5023691;28;20283;-76
2022/03/29 01:34:07;;;;;;;26.90;15.55;;;;;;;7.27;76.38;101566.34;5022718;28;20137;-76
2022/03/29 01:36:32;;;;;;;24.30;14.82;;;;;;;7.21;76.62;101566.97;5022199;28;20060;-77
2022/03/29 01:38:59;;;;;;;25.20;14.50;;;;;;;7.19;76.39;101559.91;5023033;28;20030;-76
2022/03/29 01:41:26;;;;;;;26.95;15.27;;;;;;;7.09;77.15;101567.22;5022671;28;20022;-76
2022/03/29 01:43:52;;;;;;;28.17;15.52;;;;;;;7.03;77.79;101559.16;5022902;28;20188;-76
2022/03/29 01:46:18;;;;;;;27.45;15.70;;;;;;;7.02;77.27;101552.19;5021836;28;20017;-76
2022/03/29 01:48:43;;;;;;;26.45;15.23;;;;;;;7.05;77.66;101554.03;5023003;28;20030;-76
2022/03/29 01:51:10;;;;;;;31.40;17.23;;;;;;;7.06;77.98;101551.53;5023234;28;20033;-76
2022/03/29 01:53:36;;;;;;;26.98;15.98;;;;;;;7.08;78.09;101554.19;5022804;28;20029;-76
2022/03/29 01:56:01;;;;;;;29.00;16.60;;;;;;;7.08;78.37;101549.00;5023031;28;20021;-76
2022/03/29 01:58:29;;;;;;;28.27;16.27;;;;;;;7.07;78.42;101542.94;5023252;28;20052;-76
2022/03/29 02:00:55;;;;;;;29.13;16.42;;;;;;;7.05;78.72;101541.09;5021714;28;20084;-76
2022/03/29 02:03:21;;;;;;;27.23;15.65;;;;;;;7.03;79.21;101535.84;5022800;28;20030;-76
2022/03/29 02:05:46;;;;;;;28.77;16.73;;;;;;;7.03;78.99;101529.78;5023001;28;20040;-76
2022/03/29 02:08:12;;;;;;;30.33;17.40;;;;;;;7.06;78.81;101529.91;5021954;28;20017;-79
2022/03/29 02:10:38;;;;;;;35.20;17.85;;;;;;;7.07;78.80;101532.59;5018240;28;20025;-79
2022/03/29 02:13:04;;;;;;;30.70;17.33;;;;;;;7.09;78.43;101520.56;5022245;28;20085;-79
2022/03/29 02:15:30;;;;;;;31.70;18.33;;;;;;;7.09;78.56;101517.09;5033332;28;20178;-79
2022/03/29 02:17:55;;;;;;;30.17;17.20;;;;;;;7.10;78.76;101513.72;5023347;28;20176;-79
2022/03/29 02:20:22;;;;;;;33.30;18.27;;;;;;;7.12;78.13;101512.94;5021122;28;20030;-79
2022/03/29 02:22:47;;;;;;;32.25;18.15;;;;;;;7.11;78.65;101507.69;5025805;28;20033;-79
2022/03/29 02:25:13;;;;;;;31.60;17.52;;;;;;;7.10;78.51;101512.00;5023607;28;20014;-79
2022/03/29 02:27:41;;;;;;;30.17;17.13;;;;;;;7.11;78.47;101507.69;5025053;28;20038;-79
2022/03/29 02:30:08;;;;;;;32.55;17.35;;;;;;;7.14;78.55;101502.69;5026686;28;20052;-79
2022/03/29 02:32:33;;;;;;;32.88;18.58;;;;;;;7.11;78.62;101508.59;5026360;28;20025;-79
2022/03/29 02:34:58;;;;;;;33.60;18.27;;;;;;;7.09;78.82;101510.22;5026444;28;20024;-79
2022/03/29 02:37:24;;;;;;;32.47;18.08;;;;;;;7.08;78.77;101505.88;5026206;28;20303;-77
2022/03/29 02:39:49;;;;;;;34.25;19.27;;;;;;;7.07;79.46;101496.31;5026444;28;20076;-76
2022/03/29 02:42:15;;;;;;;37.08;19.50;;;;;;;7.07;79.70;101491.13;5017161;28;20073;-76
2022/03/29 02:44:40;;;;;;;36.42;19.30;;;;;;;7.06;79.74;101481.56;5025845;28;20017;-76
2022/03/29 02:47:06;;;;;;;34.72;18.25;;;;;;;7.06;79.28;101486.75;5026466;28;20018;-76
2022/03/29 02:49:31;;;;;;;36.22;20.00;;;;;;;7.07;79.99;101483.34;5024535;28;20145;-76
2022/03/29 02:51:56;;;;;;;36.47;19.83;;;;;;;7.11;80.48;101480.09;5025494;28;20037;-76
2022/03/29 02:54:21;;;;;;;35.95;19.52;;;;;;;7.13;80.07;101472.38;5025358;28;20026;-76
2022/03/29 02:56:47;;;;;;;39.17;20.80;;;;;;;7.11;80.69;101467.13;5025723;28;20021;-76
2022/03/29 02:59:13;;;;;;;35.78;20.60;;;;;;;7.13;80.58;101465.50;5024008;28;20088;-76
2022/03/29 03:01:39;;;;;;;38.38;20.40;;;;;;;7.14;80.55;101466.41;5024075;28;20026;-76
2022/03/29 03:04:05;;;;;;;36.17;20.65;;;;;;;7.14;80.72;101466.41;5025616;28;20091;-76
2022/03/29 03:06:30;;;;;;;38.88;21.23;;;;;;;7.14;80.44;101461.22;5024960;28;20029;-77
2022/03/29 03:08:55;;;;;;;39.83;20.90;;;;;;;7.12;80.61;101457.66;5024792;28;20042;-76
2022/03/29 03:11:20;;;;;;;40.40;20.83;;;;;;;7.10;81.73;101460.16;5025418;28;20025;-76
2022/03/29 03:13:46;;;;;;;39.42;20.67;;;;;;;7.08;81.11;101451.44;5025072;28;20030;-76
2022/03/29 03:16:12;;;;;;;38.83;21.63;;;;;;;7.05;81.66;101448.69;5024310;28;20040;-76
2022/03/29 03:18:37;;;;;;;41.40;21.85;;;;;;;7.05;82.46;101445.22;5023373;28;20033;-76
2022/03/29 03:21:03;;;;;;;40.22;21.50;;;;;;;7.03;81.87;101445.13;5023134;28;20136;-76
2022/03/29 03:23:29;;;;;;;38.83;22.02;;;;;;;7.01;81.46;101444.19;5023803;28;20320;-76
2022/03/29 03:25:54;;;;;;;41.45;22.23;;;;;;;7.00;81.35;101445.00;5025127;28;20033;-76
2022/03/29 03:28:20;;;;;;;38.70;21.67;;;;;;;7.00;81.58;101447.59;5024844;28;20021;-76
2022/03/29 03:30:45;;;;;;;39.40;20.60;;;;;;;7.00;81.13;101450.19;5025146;28;20025;-76
2022/03/29 03:33:11;;;;;;;40.97;21.98;;;;;;;7.04;81.26;101448.59;5022545;28;20022;-76
2022/03/29 03:35:36;;;;;;;41.83;22.52;;;;;;;7.06;81.41;101447.00;5024222;28;20036;-76
2022/03/29 03:38:01;;;;;;;41.42;21.88;;;;;;;7.05;81.75;101443.50;5024889;28;20025;-79
2022/03/29 03:40:27;;;;;;;40.50;21.83;;;;;;;7.07;81.41;101443.59;5023641;28;20033;-79
2022/03/29 03:42:52;;;;;;;44.03;23.10;;;;;;;7.03;82.23;101437.38;5024695;28;20085;-79
2022/03/29 03:45:17;;;;;;;42.58;22.73;;;;;;;7.05;82.59;101440.03;5024599;28;20048;-79
2022/03/29 03:47:43;;;;;;;44.92;23.55;;;;;;;7.04;82.40;101435.66;5024639;28;20025;-79
2022/03/29 03:50:09;;;;;;;42.08;22.65;;;;;;;7.04;82.67;101441.75;5024838;28;20029;-80
2022/03/29 03:52:34;;;;;;;44.72;23.35;;;;;;;7.05;82.43;101433.13;5022266;28;20135;-79
2022/03/29 03:55:01;;;;;;;42.50;22.45;;;;;;;7.06;81.84;101434.91;5024408;28;20268;-79
2022/03/29 03:57:26;;;;;;;42.58;23.38;;;;;;;7.08;82.21;101433.31;5024314;28;20295;-80
2022/03/29 03:59:52;;;;;;;44.67;23.60;;;;;;;7.06;82.46;101426.28;5024190;28;20028;-79
2022/03/29 04:02:18;;;;;;;44.80;24.60;;;;;;;7.03;82.36;101428.72;5024322;28;20223;-79
2022/03/29 04:04:43;;;;;;;46.83;24.45;;;;;;;7.01;82.23;101427.75;5023594;28;20220;-79
2022/03/29 04:07:09;;;;;;;45.05;23.80;;;;;;;6.96;81.70;101420.63;5024829;28;20041;-77
2022/03/29 04:09:35;;;;;;;44.47;23.65;;;;;;;6.96;82.13;101424.94;5026060;28;20025;-76
2022/03/29 04:12:04;;;;;;;44.20;23.58;;;;;;;6.93;81.95;101419.63;5034247;28;20010;-76
2022/03/29 04:14:30;;;;;;;47.45;23.58;;;;;;;6.92;81.96;101410.06;5021859;28;20104;-76
2022/03/29 04:16:55;;;;;;;49.25;24.83;;;;;;;6.93;82.30;101409.25;5023077;28;20301;-76
2022/03/29 04:19:20;;;;;;;46.63;24.60;;;;;;;6.93;82.14;101404.94;5023295;28;20296;-76
2022/03/29 04:21:47;;;;;;;46.88;25.60;;;;;;;6.92;82.41;101403.19;5022831;28;20013;-76
2022/03/29 04:24:12;;;;;;;46.92;25.60;;;;;;;6.90;82.98;101401.34;5023806;28;20010;-76
2022/03/29 04:26:37;;;;;;;51.53;26.00;;;;;;;6.89;82.36;101399.56;5024175;28;20026;-76
2022/03/29 04:29:03;;;;;;;47.80;25.27;;;;;;;6.89;82.46;101399.56;5024394;28;20076;-76
2022/03/29 04:31:28;;;;;;;52.20;26.02;;;;;;;6.90;82.91;101398.75;5023479;28;20318;-76
2022/03/29 04:33:54;;;;;;;48.92;25.27;;;;;;;6.89;82.56;101394.38;5023396;28;20030;-76
2022/03/29 04:36:19;;;;;;;45.88;25.02;;;;;;;6.92;83.03;101394.50;5020747;28;20279;-79
2022/03/29 04:38:45;;;;;;;51.28;26.08;;;;;;;6.91;82.51;101385.00;5038156;28;20268;-79
2022/03/29 04:41:11;;;;;;;52.33;25.40;;;;;;;6.88;82.65;101390.91;5022957;28;20083;-79
2022/03/29 04:43:36;;;;;;;48.45;26.30;;;;;;;6.88;82.90;101390.91;5022990;28;20085;-79
2022/03/29 04:46:02;;;;;;;54.90;27.58;;;;;;;6.85;82.97;101389.84;5022013;28;20164;-79
2022/03/29 04:48:28;;;;;;;49.20;26.02;;;;;;;6.86;83.04;101389.94;5023696;28;20033;-79
2022/03/29 04:50:53;;;;;;;47.47;26.42;;;;;;;6.86;82.57;101378.69;5022463;28;20025;-79
2022/03/29 04:53:19;;;;;;;51.47;27.30;;;;;;;6.84;82.51;101376.03;5023263;28;20275;-79
2022/03/29 04:55:44;;;;;;;51.50;27.15;;;;;;;6.81;83.11;101373.28;5023627;28;20018;-79
2022/03/29 04:58:10;;;;;;;51.97;26.50;;;;;;;6.79;83.17;101372.31;5022214;28;20222;-79
2022/03/29 05:00:35;;;;;;;51.00;27.05;;;;;;;6.76;82.90;101373.09;5022774;28;20033;-79
2022/03/29 05:03:01;;;;;;;51.90;26.92;;;;;;;6.74;83.33;101369.50;5021704;28;20025;-79
2022/03/29 05:05:26;;;;;;;50.92;26.95;;;;;;;6.71;83.49;101364.19;5023313;28;20060;-79
2022/03/29 05:07:52;;;;;;;55.75;27.88;;;;;;;6.69;83.63;101358.06;5023985;28;20029;-79
2022/03/29 05:10:17;;;;;;;52.22;27.83;;;;;;;6.66;83.78;101355.31;5022799;28;20017;-79
2022/03/29 05:12:48;;;;;;;56.85;27.83;;;;;;;6.62;84.19;101356.00;5022600;28;20076;-79
2022/03/29 05:15:16;;;;;;;52.75;28.15;;;;;;;6.62;83.82;101363.78;5022045;28;20010;-79
2022/03/29 05:17:43;;;;;;;58.43;28.37;;;;;;;6.63;84.10;101362.94;5023408;28;20030;-79
2022/03/29 05:20:10;;;;;;;53.47;27.50;;;;;;;6.58;84.41;101359.25;5021358;28;20149;-79
2022/03/29 05:22:41;;;;;;;58.15;28.42;;;;;;;6.56;84.33;101368.63;5022032;28;20020;-79
2022/03/29 05:25:07;;;;;;;55.63;28.17;;;;;;;6.52;84.18;101359.84;5021738;28;20014;-79
2022/03/29 05:27:32;;;;;;;61.78;29.73;;;;;;;6.52;85.16;101366.72;5023129;28;20059;-79
2022/03/29 05:29:58;;;;;;;60.65;29.27;;;;;;;6.50;85.02;101365.75;5022045;28;20219;-79
2022/03/29 05:32:23;;;;;;;62.55;29.33;;;;;;;6.47;85.14;101357.84;5022128;28;20026;-79
2022/03/29 05:34:49;;;;;;;62.65;30.27;;;;;;;6.47;85.71;101360.44;5021265;28;20007;-79
2022/03/29 05:37:14;;;;;;;62.50;29.95;;;;;;;6.50;85.55;101366.63;5012827;28;20026;-79
2022/03/29 05:39:41;;;;;;;62.13;29.95;;;;;;;6.52;85.87;101365.03;5022857;28;20018;-79
2022/03/29 05:42:08;;;;;;;63.13;29.02;;;;;;;6.56;85.36;101360.84;5021376;28;20089;-79
2022/03/29 05:44:33;;;;;;;63.53;30.40;;;;;;;6.60;85.21;101358.53;5022611;28;20021;-79
2022/03/29 05:49:42;;;;;;;63.30;29.02;;;;;;;6.67;85.28;101359.69;5022257;28;20045;-79
2022/03/29 05:52:07;;;;;;;65.70;29.42;;;;;;;6.70;85.57;101358.94;5022024;28;20088;-79
2022/03/29 05:54:35;;;;;;;67.03;29.63;;;;;;;6.70;84.96;101351.19;5022705;28;20033;-79
2022/03/29 05:57:00;;;;;;;66.78;29.92;;;;;;;6.69;85.85;101352.88;5024555;28;20268;-79
2022/03/29 05:59:26;;;;;;;61.72;29.38;;;;;;;6.69;85.43;101357.16;5026505;28;20241;-79
2022/03/29 06:01:51;;;;;;;64.70;30.10;;;;;;;6.69;85.89;101359.75;5026390;28;20093;-79
2022/03/29 06:04:17;;;;;;;67.05;30.67;;;;;;;6.68;85.82;101361.47;5026102;28;20135;-79
2022/03/29 06:06:44;;;;;;;62.63;29.33;;;;;;;6.71;86.41;101361.59;5025469;28;20036;-79
2022/03/29 06:09:10;;;;;;;66.80;29.67;;;;;;;6.71;86.05;101366.78;5025378;28;20041;-79
2022/03/29 06:11:35;;;;;;;69.28;31.25;;;;;;;6.71;85.69;101355.56;5025883;28;20072;-79
2022/03/29 06:14:02;;;;;;;64.60;29.52;;;;;;;6.69;86.31;101358.06;5025074;28;20021;-79
2022/03/29 06:16:28;;;;;;;69.28;30.55;;;;;;;6.69;86.58;101363.25;5024482;28;20018;-77
2022/03/29 06:18:53;;;;;;;67.35;29.20;;;;;;;6.72;86.06;101370.25;5025448;28;20270;-76
2022/03/29 06:21:18;;;;;;;70.95;31.10;;;;;;;6.70;86.08;101366.72;5024251;28;20028;-76
2022/03/29 06:23:44;;;;;;;67.97;30.40;;;;;;;6.71;86.84;101361.59;5026341;28;20364;-76
2022/03/29 06:26:09;;;;;;;71.20;29.73;;;;;;;6.73;86.67;101364.25;5026286;28;20025;-76
2022/03/29 06:28:35;;;;;;;68.32;30.35;;;;;;;6.71;86.93;101364.19;5026775;28;20264;-76
2022/03/29 06:31:00;;;;;;;72.30;31.20;;;;;;;6.71;86.56;101369.38;5024828;28;20253;-76
2022/03/29 06:33:26;;;;;;;67.05;30.20;;;;;;;6.70;86.87;101359.81;5026080;28;20033;-76
2022/03/29 06:35:52;;;;;;;71.80;31.55;;;;;;;6.70;86.91;101358.94;5025716;28;20022;-76
2022/03/29 06:38:21;;;;;;;73.30;32.33;;;;;;;6.72;87.25;101365.97;5025237;28;20172;-76
2022/03/29 06:40:50;;;;;;;74.93;31.50;;;;;;;6.76;87.16;101370.50;5025092;28;20032;-76
2022/03/29 06:43:16;;;;;;;;;;;;;;;6.88;84.64;101366.69;5024789;28;20168;-76
2022/03/29 06:45:41;;;;;;;72.43;29.80;;;;;;;6.83;86.25;101363.88;5023850;28;19970;-76
2022/03/29 06:48:07;;;;;;;70.13;30.30;;;;;;;6.84;86.87;101357.03;5023855;28;20068;-78
2022/03/29 06:50:33;;;;;;;78.28;31.38;;;;;;;6.83;86.81;101356.13;5025724;28;20041;-78
2022/03/29 06:52:59;;;;;;;73.82;31.27;;;;;;;6.83;86.58;101352.66;5025642;28;20018;-79
2022/03/29 06:55:25;;;;;;;73.05;32.03;;;;;;;6.85;86.68;101358.78;5024996;28;20549;-78
2022/03/29 06:57:51;;;;;;;72.25;31.05;;;;;;;6.87;87.07;101349.38;5025370;28;20014;-78
2022/03/29 07:00:17;;;;;;;73.35;30.85;;;;;;;6.86;86.76;101360.56;5025263;28;20172;-78
2022/03/29 07:02:46;;;;;;;73.80;30.50;;;;;;;6.85;86.75;101359.69;5024770;28;20264;-78
2022/03/29 07:05:12;;;;;;;72.15;31.30;;;;;;;6.86;87.06;101355.38;5025485;28;20014;-78
2022/03/29 07:07:37;;;;;;;76.60;31.83;;;;;;;6.84;87.20;101347.53;5025076;28;20191;-78
2022/03/29 07:13:01;;;;;;;73.50;30.88;;;;;;;6.83;87.31;101350.94;5024868;28;20092;-78
2022/03/29 07:15:28;;;;;;;77.80;31.48;;;;;;;6.87;87.10;101349.38;5020041;28;20032;-78
2022/03/29 07:17:55;;;;;;;80.95;31.15;;;;;;;6.87;87.03;101354.56;5025437;28;20160;-76
2022/03/29 07:20:21;;;;;;;76.57;32.35;;;;;;;6.88;87.60;101351.13;5024871;28;20100;-76
2022/03/29 07:22:48;;;;;;;80.85;32.10;;;;;;;6.90;87.53;101346.94;5023685;28;20260;-76
2022/03/29 07:25:16;;;;;;;78.97;31.30;;;;;;;6.95;87.07;101351.53;5024738;28;20022;-76
2022/03/29 07:27:41;;;;;;;78.43;31.73;;;;;;;6.98;86.96;101355.97;5025099;28;20036;-76
2022/03/29 07:30:07;;;;;;;79.53;33.15;;;;;;;7.00;86.70;101351.72;5024379;28;20026;-76
2022/03/29 07:32:41;;;;;;;84.82;31.45;;;;;;;7.04;86.38;101360.50;5024868;28;20033;-76
2022/03/29 07:35:07;;;;;;;77.85;31.17;;;;;;;7.06;86.28;101359.78;5022153;28;20015;-76
2022/03/29 07:37:32;;;;;;;81.10;33.35;;;;;;;7.09;86.11;101353.84;5023928;28;20084;-76
2022/03/29 07:39:58;;;;;;;82.75;32.47;;;;;;;7.12;86.84;101354.88;5021829;28;20026;-76
2022/03/29 07:42:23;;;;;;;87.18;32.33;;;;;;;7.09;86.25;101364.22;5023623;28;20029;-76
2022/03/29 07:44:50;;;;;;;84.97;32.83;;;;;;;7.04;86.19;101361.41;5024688;28;20025;-76
2022/03/29 07:47:17;;;;;;;86.60;33.55;;;;;;;7.03;87.04;101369.13;5023793;28;20032;-79
2022/03/29 07:49:43;;;;;;;84.13;33.83;;;;;;;7.02;86.29;101373.41;5025180;28;20040;-78
2022/03/29 07:52:08;;;;;;;79.22;31.50;;;;;;;7.04;86.39;101365.69;5024529;28;20057;-79
2022/03/29 07:54:34;;;;;;;84.65;33.03;;;;;;;7.07;86.51;101374.50;5024344;28;20335;-78
2022/03/29 07:56:59;;;;;;;79.15;31.20;;;;;;;7.11;86.71;101368.66;5024406;28;20021;-78
2022/03/29 07:59:24;;;;;;;79.43;32.25;;;;;;;7.12;86.78;101372.13;5025107;28;20203;-78
2022/03/29 08:01:50;;;;;;;89.05;32.75;;;;;;;7.14;86.71;101371.38;5019128;28;20048;-78
2022/03/29 08:04:15;;;;;;;88.90;32.65;;;;;;;7.14;86.37;101373.97;5024375;28;20061;-78
2022/03/29 08:06:41;;;;;;;87.40;33.75;;;;;;;7.16;86.42;101375.75;5022275;28;20032;-78
2022/03/29 08:09:06;;;;;;;84.75;32.45;;;;;;;7.14;86.63;101379.16;5023823;28;20032;-78
2022/03/29 08:11:34;;;;;;;87.78;34.03;;;;;;;7.14;86.77;101373.97;5022583;28;20021;-78
2022/03/29 08:13:59;;;;;;;85.68;32.92;;;;;;;7.18;86.48;101371.53;5023831;28;20041;-78
2022/03/29 08:16:24;;;;;;;84.43;33.13;;;;;;;7.22;86.64;101368.25;5020962;28;20032;-78
2022/03/29 08:18:50;;;;;;;85.85;31.90;;;;;;;7.26;86.09;101373.66;5023159;28;20085;-78
2022/03/29 08:24:00;;;;;;;84.57;31.67;;;;;;;7.32;86.59;101362.69;5022042;28;20072;-78
2022/03/29 08:26:26;;;;;;;88.97;33.42;;;;;;;7.29;85.88;101363.41;5020272;28;20021;-78
2022/03/29 08:28:51;;;;;;;88.50;34.08;;;;;;;7.27;86.72;101367.66;5023327;28;20071;-78
2022/03/29 08:31:17;;;;;;;89.40;33.60;;;;;;;7.27;86.59;101362.47;5022932;28;20037;-78
2022/03/29 08:33:43;;;;;;;91.45;34.00;;;;;;;7.29;86.71;101359.94;5023785;28;20061;-78
2022/03/29 08:36:08;;;;;;;86.47;33.55;;;;;;;7.32;87.14;101354.91;5022039;28;20022;-78
2022/03/29 08:38:33;;;;;;;90.43;34.53;;;;;;;7.35;86.78;101352.44;5022715;28;20026;-78
2022/03/29 08:40:59;;;;;;;93.60;33.67;;;;;;;7.38;86.69;101357.75;5022098;28;20054;-78
2022/03/29 08:43:30;;;;;;;89.50;31.10;;;;;;;7.38;86.41;101355.16;5022722;28;20022;-78
2022/03/29 08:45:57;;;;;;;89.43;33.50;;;;;;;7.41;86.86;101357.88;5022128;28;20018;-79
2022/03/29 08:48:28;;;;;;;92.45;34.42;;;;;;;7.40;86.42;101360.41;5021806;28;20053;-78
2022/03/29 08:50:56;;;;;;;91.18;34.05;;;;;;;7.39;86.88;101349.16;5023321;28;20336;-78
2022/03/29 08:53:21;;;;;;;87.75;33.20;;;;;;;7.44;86.93;101352.88;5023627;28;20050;-79
2022/03/29 08:55:48;;;;;;;101.90;34.17;;;;;;;7.46;86.00;101359.00;5022846;28;20029;-79
2022/03/29 08:58:16;;;;;;;100.20;34.15;;;;;;;7.47;85.81;101357.28;5022104;28;20010;-79
2022/03/29 09:00:44;;;;;;;108.55;36.80;;;;;;;7.47;86.23;101357.28;5018912;28;20024;-80
2022/03/29 09:03:10;;;;;;;97.05;34.05;;;;;;;7.51;86.25;101363.50;5019644;28;20088;-78
2022/03/29 09:05:36;;;;;;;101.13;34.13;;;;;;;7.54;86.06;101353.25;5022706;28;20025;-78
2022/03/29 09:08:05;;;;;;;96.18;34.58;;;;;;;7.59;85.88;101362.13;5022544;28;20028;-78
2022/03/29 09:10:44;;;;;;;94.05;34.35;;;;;;;7.65;85.37;101357.22;5023873;28;20056;-78
2022/03/29 09:13:23;;;;;;;98.55;34.65;;;;;;;7.70;85.89;101358.28;5022227;28;20084;-78
2022/03/29 09:15:50;;;;;;;101.30;34.80;;;;;;;7.69;86.04;101353.94;5021979;28;20014;-78
2022/03/29 09:18:16;;;;;;;100.35;35.10;;;;;;;7.67;85.65;101352.97;5015850;28;20022;-78
2022/03/29 09:20:41;;;;;;;100.05;33.95;;;;;;;7.66;85.74;101348.59;5019126;28;20030;-78
2022/03/29 09:23:18;;;;;;;108.82;37.63;;;;;;;7.65;86.08;101346.84;5020707;28;20268;-78
2022/03/29 09:25:48;;;;;;;96.82;35.35;;;;;;;7.65;85.94;101347.72;5019406;28;20026;-78
2022/03/29 09:28:21;;;;;;;116.78;37.80;;;;;;;7.68;86.09;101354.75;5021167;28;20013;-78
2022/03/29 09:30:52;;;;;;;121.65;38.70;;;;;;;7.68;85.84;101346.97;5024245;28;20029;-78
2022/03/29 09:33:30;;;;;;;116.75;36.08;;;;;;;7.66;85.10;101348.59;5023809;28;20014;-82
2022/03/29 09:36:05;;;;;;;121.28;37.58;;;;;;;7.64;85.44;101350.25;5024826;28;20088;-78
2022/03/29 09:38:36;;;;;;;106.40;35.85;;;;;;;7.63;85.40;101341.59;5022232;28;20294;-78
2022/03/29 09:41:03;;;;;;;112.50;36.83;;;;;;;7.66;85.80;101346.00;5027518;28;20026;-78
2022/03/29 09:43:29;;;;;;;112.50;37.05;;;;;;;7.68;85.40;101341.78;5026325;28;20022;-79
2022/03/29 09:45:59;;;;;;;115.90;37.53;;;;;;;7.72;85.79;101338.50;5022920;28;20026;-79
2022/03/29 09:48:31;;;;;;;108.35;35.78;;;;;;;7.74;85.74;101331.66;5018595;28;20219;-79
2022/03/29 09:51:08;;;;;;;101.15;36.83;;;;;;;7.79;85.47;101332.75;5024656;28;20164;-79
2022/03/29 09:53:37;;;;;;;92.43;33.72;;;;;;;7.83;86.29;101329.50;5012232;28;20041;-79
2022/03/29 09:56:04;;;;;;;88.18;32.53;;;;;;;7.88;86.00;101324.50;5027225;28;20030;-79
2022/03/29 09:58:30;;;;;;;99.55;36.00;;;;;;;7.94;85.40;101334.25;5026820;28;20034;-79
2022/03/29 10:00:56;;;;;;;90.85;35.55;;;;;;;7.97;85.14;101330.06;5015613;28;20053;-79
2022/03/29 10:03:24;;;;;;;95.70;34.05;;;;;;;7.99;85.04;101320.63;5023692;28;20295;-79
2022/03/29 10:05:50;;;;;;;88.47;32.60;;;;;;;8.04;85.16;101317.31;5025280;28;20018;-79
2022/03/29 10:11:05;;;;;;;77.57;30.70;;;;;;;8.14;84.45;101314.28;5019163;28;20079;-78
2022/03/29 10:13:31;;;;;;;83.93;32.35;;;;;;;8.12;84.46;101309.03;5025994;28;20037;-79
2022/03/29 10:15:56;;;;;;;81.18;31.10;;;;;;;8.15;84.14;101298.81;5024318;28;20053;-78
2022/03/29 10:18:24;;;;;;;78.25;31.48;;;;;;;8.22;83.78;101305.09;5023630;28;20014;-78
2022/03/29 10:20:51;;;;;;;76.97;31.38;;;;;;;8.24;84.01;101294.78;5018094;28;20053;-79
2022/03/29 10:23:21;;;;;;;73.88;29.10;;;;;;;8.25;84.38;101299.16;5019658;28;20085;-80
2022/03/29 10:25:47;;;;;;;76.82;32.15;;;;;;;8.25;83.82;101296.56;5022226;28;20041;-80
2022/03/29 10:28:12;;;;;;;79.35;31.92;;;;;;;8.27;84.35;101298.41;5021221;28;20061;-80
2022/03/29 10:30:40;;;;;;;75.40;31.35;;;;;;;8.31;84.20;101296.81;5020918;28;20020;-79
2022/03/29 10:33:29;;;;;;;74.97;30.75;;;;;;;8.36;83.90;101293.56;5020301;28;20149;-80
2022/03/29 10:36:09;;;;;;;75.20;32.42;;;;;;;8.42;83.83;101299.84;5019468;28;20029;-80
2022/03/29 10:38:47;;;;;;;73.47;31.27;;;;;;;8.50;83.83;101301.94;5025619;28;20025;-80
2022/03/29 10:41:32;;;;;;;77.55;31.88;;;;;;;8.58;83.12;101299.63;5021909;28;20037;-80
2022/03/29 10:44:05;;;;;;;72.50;31.25;;;;;;;8.61;82.86;101297.16;5021643;28;20038;-80
2022/03/29 10:46:37;;;;;;;80.95;32.30;;;;;;;8.66;83.47;101294.72;5017157;28;20045;-80
2022/03/29 10:49:24;;;;;;;72.72;31.38;;;;;;;8.72;83.14;101287.19;5020503;28;20025;-80
2022/03/29 10:51:53;;;;;;;68.28;28.80;;;;;;;8.78;83.18;101273.56;5017997;28;20089;-80
2022/03/29 10:54:27;;;;;;;69.90;30.75;;;;;;;8.81;83.04;101274.53;5021102;28;20014;-80
2022/03/29 10:57:07;;;;;;;72.57;29.58;;;;;;;8.81;81.84;101281.47;5021500;28;20026;-79
2022/03/29 10:59:34;;;;;;;67.75;29.67;;;;;;;8.81;82.79;101271.94;5014568;28;20077;-79
2022/03/29 11:02:20;;;;;;;63.53;28.45;;;;;;;8.90;83.12;101279.19;5017656;28;20047;-79
2022/03/29 11:05:11;;;;;;;66.60;28.38;;;;;;;8.98;82.16;101264.78;5025331;28;20036;-79
2022/03/29 11:07:38;;;;;;;66.43;29.15;;;;;;;9.02;82.33;101255.38;5025219;28;20157;-79
2022/03/29 11:10:13;;;;;;;62.35;28.17;;;;;;;9.05;81.18;101253.78;5024945;28;20034;-79
2022/03/29 11:12:52;;;;;;;65.35;28.25;;;;;;;9.09;81.16;101253.88;5018008;28;20030;-79
2022/03/29 11:15:24;;;;;;;70.70;29.77;;;;;;;9.13;81.63;101248.84;5015787;28;20029;-79
2022/03/29 11:17:52;;;;;;;67.95;29.92;;;;;;;9.18;81.31;101247.31;5012181;28;20058;-79
2022/03/29 11:20:38;;;;;;;70.20;30.40;;;;;;;9.23;81.61;101250.06;5022752;28;20038;-79
2022/03/29 11:23:06;;;;;;;75.75;32.50;;;;;;;9.25;81.02;101243.19;5014084;28;20087;-80
2022/03/29 11:25:41;;;;;;;72.28;31.77;;;;;;;9.34;80.63;101237.44;5023723;28;20014;-79
2022/03/29 11:28:10;;;;;;;72.63;31.35;;;;;;;9.43;80.07;101234.25;5024560;28;20231;-79
2022/03/29 11:30:35;;;;;;;77.43;32.55;;;;;;;9.51;81.02;101233.69;5023649;28;20017;-80